WAT59 KPBI-KDFW
Flight info
| Callsign | WAT59 |
|---|---|
| Flight time | N/A |
| Altitude | 34000 |
| Route | OLAKE3 JAYMC Y280 REDFN Q105 HRV J58 AEX PNUTS WHINY4 |
| Aircraft | CRJX/M-SDFGIRWY/S |
Departure
| Time | 2026-04-30 17:41 |
|---|---|
| Airport | Palm Beach International Airport (KPBI) |
Arrival
| Time | N/A |
|---|---|
| Airport | Dallas Fort Worth International Airport (KDFW) |
| Time | Latitude | Longitude | Altitude | Speed | Heading |
|---|---|---|---|---|---|
| 2026-04-30 17:39 | 26.68261 | -80.09483 | 27 ft | 151 kts | 272° |
| 2026-04-30 17:41 | 26.69146 | -80.21485 | 4859 ft | 257 kts | 296° |
| 2026-04-30 17:42 | 26.71111 | -80.24981 | 6494 ft | 271 kts | 301° |
| 2026-04-30 17:42 | 26.75627 | -80.28738 | 8974 ft | 280 kts | 334° |
| 2026-04-30 17:43 | 26.79254 | -80.30423 | 10557 ft | 283 kts | 334° |
| 2026-04-30 17:44 | 26.84696 | -80.33071 | 12722 ft | 288 kts | 332° |
| 2026-04-30 17:44 | 26.90139 | -80.36037 | 14575 ft | 290 kts | 313° |
| 2026-04-30 17:46 | 26.92609 | -80.46891 | 17198 ft | 300 kts | 276° |
| 2026-04-30 17:47 | 26.93620 | -80.57192 | 17920 ft | 353 kts | 278° |
| 2026-04-30 17:48 | 26.94807 | -80.68297 | 19547 ft | 365 kts | 277° |
| 2026-04-30 17:48 | 26.95705 | -80.76857 | 20675 ft | 373 kts | 276° |
| 2026-04-30 17:49 | 26.96302 | -80.88641 | 22077 ft | 384 kts | 273° |
| 2026-04-30 17:50 | 26.96777 | -81.00723 | 23449 ft | 392 kts | 273° |
| 2026-04-30 17:51 | 26.97130 | -81.09917 | 24267 ft | 398 kts | 273° |
| 2026-04-30 17:52 | 26.97480 | -81.19263 | 25042 ft | 402 kts | 273° |
| 2026-04-30 17:53 | 26.98285 | -81.35050 | 26016 ft | 414 kts | 286° |
| 2026-04-30 17:54 | 27.03551 | -81.46757 | 26646 ft | 425 kts | 303° |
| 2026-04-30 17:55 | 27.09984 | -81.57848 | 27675 ft | 423 kts | 301° |
| 2026-04-30 17:56 | 27.16246 | -81.68968 | 28531 ft | 423 kts | 301° |
| 2026-04-30 17:57 | 27.20957 | -81.77353 | 29164 ft | 423 kts | 301° |
| 2026-04-30 17:58 | 27.25652 | -81.85708 | 29933 ft | 419 kts | 301° |
| 2026-04-30 17:59 | 27.29748 | -81.96609 | 30578 ft | 414 kts | 282° |
| 2026-04-30 18:00 | 27.31947 | -82.09274 | 31246 ft | 411 kts | 282° |
| 2026-04-30 18:00 | 27.33701 | -82.18674 | 31773 ft | 408 kts | 282° |
| 2026-04-30 18:01 | 27.34863 | -82.24920 | 32148 ft | 407 kts | 282° |
| 2026-04-30 18:02 | 27.36587 | -82.34240 | 32684 ft | 405 kts | 282° |
| 2026-04-30 18:02 | 27.38290 | -82.43462 | 33232 ft | 401 kts | 283° |
| 2026-04-30 18:03 | 27.39981 | -82.52663 | 33723 ft | 400 kts | 283° |
| 2026-04-30 18:04 | 27.41692 | -82.61875 | 33970 ft | 403 kts | 283° |
| 2026-04-30 18:05 | 27.44027 | -82.74394 | 33996 ft | 414 kts | 283° |
| 2026-04-30 18:06 | 27.46413 | -82.87252 | 33998 ft | 424 kts | 283° |
| 2026-04-30 18:08 | 27.50688 | -83.10456 | 33993 ft | 439 kts | 283° |
| 2026-04-30 18:10 | 27.55615 | -83.37492 | 33987 ft | 437 kts | 282° |
| 2026-04-30 18:11 | 27.59807 | -83.60744 | 33983 ft | 430 kts | 282° |
| 2026-04-30 18:13 | 27.62746 | -83.77196 | 33982 ft | 427 kts | 282° |
| 2026-04-30 18:14 | 27.65652 | -83.93557 | 33981 ft | 424 kts | 283° |
| 2026-04-30 18:15 | 27.69081 | -84.13045 | 33987 ft | 422 kts | 283° |
| 2026-04-30 18:16 | 27.71349 | -84.26019 | 33983 ft | 421 kts | 282° |
| 2026-04-30 18:17 | 27.72475 | -84.32494 | 33980 ft | 420 kts | 283° |
| 2026-04-30 18:18 | 27.74158 | -84.42194 | 33986 ft | 419 kts | 283° |
| 2026-04-30 18:18 | 27.75267 | -84.48613 | 33984 ft | 419 kts | 283° |
| 2026-04-30 18:19 | 27.76385 | -84.55106 | 33982 ft | 418 kts | 283° |
| 2026-04-30 18:19 | 27.77492 | -84.61554 | 33982 ft | 418 kts | 283° |
| 2026-04-30 18:20 | 27.78591 | -84.67958 | 33985 ft | 418 kts | 283° |
| 2026-04-30 18:20 | 27.79689 | -84.74397 | 33983 ft | 417 kts | 283° |
| 2026-04-30 18:21 | 27.80784 | -84.80832 | 33979 ft | 417 kts | 283° |
| 2026-04-30 18:21 | 27.81878 | -84.87264 | 33982 ft | 417 kts | 283° |
| 2026-04-30 18:22 | 27.82972 | -84.93694 | 33985 ft | 416 kts | 282° |
| 2026-04-30 18:22 | 27.84596 | -85.03337 | 33982 ft | 416 kts | 282° |
| 2026-04-30 18:23 | 27.85677 | -85.09763 | 33978 ft | 416 kts | 283° |
| 2026-04-30 18:23 | 27.86756 | -85.16186 | 33979 ft | 416 kts | 283° |
| 2026-04-30 18:24 | 27.88414 | -85.25791 | 33978 ft | 414 kts | 286° |
| 2026-04-30 18:25 | 27.90178 | -85.31974 | 33976 ft | 413 kts | 291° |
| 2026-04-30 18:25 | 27.93087 | -85.41093 | 33977 ft | 413 kts | 290° |
| 2026-04-30 18:26 | 27.95871 | -85.50307 | 33975 ft | 412 kts | 290° |
| 2026-04-30 18:27 | 27.98645 | -85.59519 | 33973 ft | 412 kts | 290° |
| 2026-04-30 18:28 | 28.01413 | -85.68730 | 33983 ft | 412 kts | 290° |
| 2026-04-30 18:28 | 28.04172 | -85.77940 | 33975 ft | 411 kts | 290° |
| 2026-04-30 18:29 | 28.07834 | -85.90203 | 33971 ft | 411 kts | 290° |
| 2026-04-30 18:30 | 28.11470 | -86.02414 | 33970 ft | 410 kts | 290° |
| 2026-04-30 18:31 | 28.14192 | -86.11594 | 33971 ft | 409 kts | 290° |
| 2026-04-30 18:32 | 28.16906 | -86.20765 | 33965 ft | 409 kts | 289° |
| 2026-04-30 18:33 | 28.19608 | -86.29925 | 33968 ft | 408 kts | 289° |
| 2026-04-30 18:33 | 28.22302 | -86.39084 | 33972 ft | 408 kts | 289° |
| 2026-04-30 18:34 | 28.24989 | -86.48241 | 33971 ft | 407 kts | 289° |
| 2026-04-30 18:35 | 28.26763 | -86.54304 | 33968 ft | 407 kts | 289° |
| 2026-04-30 18:35 | 28.28547 | -86.60408 | 33968 ft | 407 kts | 289° |
| 2026-04-30 18:36 | 28.31217 | -86.69551 | 33969 ft | 406 kts | 289° |
| 2026-04-30 18:37 | 28.33840 | -86.78701 | 33980 ft | 406 kts | 289° |
| 2026-04-30 18:37 | 28.35629 | -86.84779 | 33967 ft | 406 kts | 289° |
| 2026-04-30 18:38 | 28.37410 | -86.90862 | 33968 ft | 405 kts | 289° |
| 2026-04-30 18:38 | 28.39170 | -86.96902 | 33966 ft | 405 kts | 289° |
| 2026-04-30 18:39 | 28.40949 | -87.03016 | 33965 ft | 405 kts | 288° |
| 2026-04-30 18:39 | 28.42700 | -87.09049 | 33962 ft | 404 kts | 288° |
| 2026-04-30 18:40 | 28.44462 | -87.15126 | 33959 ft | 404 kts | 288° |
| 2026-04-30 18:40 | 28.46216 | -87.21187 | 33962 ft | 404 kts | 288° |
| 2026-04-30 18:41 | 28.47958 | -87.27218 | 33965 ft | 403 kts | 288° |
| 2026-04-30 18:41 | 28.49704 | -87.33277 | 33957 ft | 403 kts | 288° |
| 2026-04-30 18:42 | 28.51453 | -87.39346 | 33961 ft | 403 kts | 288° |
| 2026-04-30 18:42 | 28.54058 | -87.48430 | 33963 ft | 403 kts | 288° |
| 2026-04-30 18:45 | 28.63554 | -87.81723 | 33959 ft | 402 kts | 288° |
| 2026-04-30 18:46 | 28.65274 | -87.87788 | 33981 ft | 402 kts | 288° |
| 2026-04-30 18:46 | 28.66980 | -87.93863 | 33968 ft | 403 kts | 287° |
| 2026-04-30 18:47 | 28.68381 | -87.98921 | 33962 ft | 403 kts | 287° |
| 2026-04-30 18:47 | 28.70344 | -88.05990 | 33958 ft | 402 kts | 288° |
| 2026-04-30 18:48 | 28.71779 | -88.11082 | 33955 ft | 402 kts | 287° |
| 2026-04-30 18:48 | 28.73475 | -88.17117 | 33957 ft | 402 kts | 287° |
| 2026-04-30 18:49 | 28.75180 | -88.23197 | 33955 ft | 402 kts | 287° |
| 2026-04-30 18:49 | 28.76890 | -88.29297 | 33957 ft | 405 kts | 287° |
| 2026-04-30 18:50 | 28.78609 | -88.35443 | 33961 ft | 409 kts | 287° |
| 2026-04-30 18:50 | 28.80340 | -88.41646 | 33961 ft | 412 kts | 287° |
| 2026-04-30 18:51 | 28.82077 | -88.47893 | 33951 ft | 415 kts | 287° |
| 2026-04-30 18:51 | 28.83643 | -88.54241 | 33956 ft | 417 kts | 285° |
| 2026-04-30 18:52 | 28.85154 | -88.60646 | 33954 ft | 419 kts | 285° |
| 2026-04-30 18:52 | 28.86663 | -88.67088 | 33954 ft | 421 kts | 285° |
| 2026-04-30 18:53 | 28.88173 | -88.73549 | 33953 ft | 422 kts | 285° |
| 2026-04-30 18:53 | 28.89689 | -88.80042 | 33951 ft | 424 kts | 285° |
| 2026-04-30 18:54 | 28.91197 | -88.86505 | 33953 ft | 425 kts | 284° |
| 2026-04-30 18:54 | 28.92719 | -88.93032 | 33953 ft | 425 kts | 284° |
| 2026-04-30 18:55 | 28.94240 | -88.99558 | 33955 ft | 426 kts | 284° |
| 2026-04-30 18:55 | 28.96528 | -89.09379 | 33958 ft | 426 kts | 284° |
| 2026-04-30 18:56 | 28.98808 | -89.19198 | 33950 ft | 426 kts | 284° |
| 2026-04-30 18:57 | 29.01087 | -89.29008 | 33942 ft | 426 kts | 284° |
| 2026-04-30 18:57 | 29.02598 | -89.35509 | 33943 ft | 425 kts | 284° |
| 2026-04-30 18:58 | 29.04871 | -89.45303 | 33939 ft | 425 kts | 284° |
| 2026-04-30 18:59 | 29.07124 | -89.55104 | 33937 ft | 425 kts | 283° |
| 2026-04-30 19:00 | 29.09872 | -89.68250 | 33939 ft | 425 kts | 282° |
| 2026-04-30 19:01 | 29.12516 | -89.81369 | 33938 ft | 424 kts | 282° |
| 2026-04-30 19:02 | 29.14231 | -89.91296 | 33935 ft | 424 kts | 281° |
| 2026-04-30 19:03 | 29.16511 | -90.04541 | 33939 ft | 424 kts | 280° |
| 2026-04-30 19:04 | 29.18177 | -90.17864 | 33959 ft | 424 kts | 279° |
| 2026-04-30 19:05 | 29.20297 | -90.31151 | 33944 ft | 425 kts | 280° |
| 2026-04-30 19:06 | 29.22551 | -90.44424 | 33942 ft | 425 kts | 279° |
| 2026-04-30 19:06 | 29.24224 | -90.54398 | 33938 ft | 425 kts | 279° |
| 2026-04-30 19:07 | 29.25891 | -90.64375 | 33936 ft | 425 kts | 280° |
| 2026-04-30 19:08 | 29.28108 | -90.77667 | 33942 ft | 425 kts | 279° |
| 2026-04-30 19:09 | 29.29751 | -90.87590 | 33931 ft | 424 kts | 279° |
| 2026-04-30 19:09 | 29.30845 | -90.94230 | 33930 ft | 424 kts | 279° |
| 2026-04-30 19:10 | 29.33025 | -91.07511 | 33935 ft | 424 kts | 279° |
| 2026-04-30 19:11 | 29.34654 | -91.17475 | 33928 ft | 424 kts | 279° |
| 2026-04-30 19:12 | 29.35736 | -91.24126 | 33932 ft | 424 kts | 279° |
| 2026-04-30 19:12 | 29.36811 | -91.30781 | 33932 ft | 424 kts | 279° |
| 2026-04-30 19:13 | 29.38950 | -91.44043 | 33932 ft | 424 kts | 279° |
| 2026-04-30 19:14 | 29.40018 | -91.50700 | 33935 ft | 425 kts | 279° |
| 2026-04-30 19:14 | 29.41085 | -91.57360 | 33937 ft | 425 kts | 278° |
| 2026-04-30 19:15 | 29.42145 | -91.64016 | 33933 ft | 424 kts | 278° |
| 2026-04-30 19:15 | 29.43732 | -91.74014 | 33929 ft | 424 kts | 278° |
| 2026-04-30 19:16 | 29.44786 | -91.80681 | 33930 ft | 424 kts | 278° |
| 2026-04-30 19:17 | 29.46358 | -91.90680 | 33927 ft | 424 kts | 278° |
| 2026-04-30 19:17 | 29.47926 | -92.00677 | 33923 ft | 424 kts | 278° |
| 2026-04-30 19:18 | 29.49475 | -92.10637 | 33927 ft | 424 kts | 278° |
| 2026-04-30 19:19 | 29.50510 | -92.17305 | 33921 ft | 424 kts | 278° |
| 2026-04-30 19:19 | 29.52056 | -92.27315 | 33940 ft | 424 kts | 278° |
| 2026-04-30 19:20 | 29.53084 | -92.33991 | 33922 ft | 425 kts | 278° |
| 2026-04-30 19:21 | 29.54615 | -92.44002 | 33917 ft | 424 kts | 278° |
| 2026-04-30 19:22 | 29.56649 | -92.57362 | 33908 ft | 424 kts | 278° |
| 2026-04-30 19:23 | 29.59668 | -92.77373 | 33914 ft | 425 kts | 278° |
| 2026-04-30 19:24 | 29.61170 | -92.87406 | 33915 ft | 425 kts | 278° |
| 2026-04-30 19:25 | 29.63661 | -93.04156 | 33918 ft | 425 kts | 278° |
| 2026-04-30 19:26 | 29.65636 | -93.17557 | 33914 ft | 425 kts | 278° |
| 2026-04-30 19:27 | 29.67101 | -93.27562 | 33911 ft | 425 kts | 278° |
| 2026-04-30 19:28 | 29.68566 | -93.37615 | 33909 ft | 425 kts | 278° |
| 2026-04-30 19:29 | 29.70506 | -93.51017 | 33902 ft | 425 kts | 278° |
| 2026-04-30 19:30 | 29.72436 | -93.64421 | 33904 ft | 425 kts | 278° |
| 2026-04-30 19:31 | 29.75739 | -93.77345 | 33915 ft | 431 kts | 300° |
| 2026-04-30 19:31 | 29.80946 | -93.85817 | 33904 ft | 433 kts | 303° |
| 2026-04-30 19:32 | 29.84950 | -93.91056 | 33893 ft | 438 kts | 311° |
| 2026-04-30 19:32 | 29.89395 | -93.95876 | 33883 ft | 439 kts | 312° |
| 2026-04-30 19:33 | 29.93755 | -94.00797 | 33903 ft | 439 kts | 311° |
| 2026-04-30 19:33 | 29.97361 | -94.04914 | 33872 ft | 439 kts | 311° |
| 2026-04-30 19:34 | 30.01697 | -94.09875 | 33879 ft | 439 kts | 311° |
| 2026-04-30 19:35 | 30.08201 | -94.17321 | 33906 ft | 439 kts | 311° |
| 2026-04-30 19:35 | 30.12531 | -94.22290 | 33892 ft | 439 kts | 310° |
| 2026-04-30 19:36 | 30.16861 | -94.27264 | 33889 ft | 439 kts | 310° |
| 2026-04-30 19:36 | 30.23355 | -94.34738 | 33896 ft | 439 kts | 310° |
| 2026-04-30 19:37 | 30.27686 | -94.39726 | 33907 ft | 439 kts | 310° |
| 2026-04-30 19:37 | 30.31987 | -94.44692 | 33908 ft | 439 kts | 310° |
| 2026-04-30 19:38 | 30.36311 | -94.49680 | 33930 ft | 438 kts | 310° |
| 2026-04-30 19:38 | 30.40618 | -94.54664 | 33919 ft | 437 kts | 310° |
| 2026-04-30 19:39 | 30.44913 | -94.59636 | 33929 ft | 435 kts | 310° |
| 2026-04-30 19:39 | 30.49188 | -94.64596 | 33923 ft | 434 kts | 310° |
| 2026-04-30 19:40 | 30.53409 | -94.69525 | 33921 ft | 431 kts | 307° |
| 2026-04-30 19:40 | 30.55126 | -94.72312 | 33935 ft | 422 kts | 295° |
| 2026-04-30 19:40 | 30.56394 | -94.75372 | 33944 ft | 420 kts | 291° |
| 2026-04-30 19:41 | 30.58652 | -94.81617 | 33938 ft | 419 kts | 290° |
| 2026-04-30 19:41 | 30.60805 | -94.87901 | 33938 ft | 419 kts | 289° |
| 2026-04-30 19:42 | 30.62935 | -94.94198 | 33941 ft | 418 kts | 289° |
| 2026-04-30 19:42 | 30.65092 | -95.00482 | 33943 ft | 419 kts | 289° |
| 2026-04-30 19:43 | 30.67291 | -95.06755 | 33942 ft | 420 kts | 289° |
| 2026-04-30 19:43 | 30.68652 | -95.09767 | 33938 ft | 425 kts | 301° |
| 2026-04-30 19:44 | 30.72883 | -95.14686 | 33957 ft | 434 kts | 313° |
| 2026-04-30 19:44 | 30.77454 | -95.19294 | 33953 ft | 435 kts | 313° |
| 2026-04-30 19:45 | 30.82054 | -95.23892 | 33949 ft | 436 kts | 313° |
| 2026-04-30 19:45 | 30.86694 | -95.28451 | 33973 ft | 437 kts | 314° |
| 2026-04-30 19:46 | 30.91618 | -95.32661 | 33958 ft | 443 kts | 320° |
| 2026-04-30 19:46 | 30.96824 | -95.36422 | 33932 ft | 443 kts | 321° |
| 2026-04-30 19:46 | 30.99415 | -95.38381 | 33830 ft | 444 kts | 320° |
| 2026-04-30 19:47 | 31.01997 | -95.40369 | 33799 ft | 445 kts | 320° |
| 2026-04-30 19:47 | 31.03709 | -95.41679 | 33526 ft | 445 kts | 320° |
| 2026-04-30 19:47 | 31.07165 | -95.44329 | 32979 ft | 442 kts | 320° |
| 2026-04-30 19:47 | 31.09724 | -95.46291 | 32475 ft | 438 kts | 320° |
| 2026-04-30 19:48 | 31.12266 | -95.48243 | 31979 ft | 435 kts | 320° |
| 2026-04-30 19:48 | 31.14781 | -95.50174 | 31613 ft | 429 kts | 320° |
| 2026-04-30 19:48 | 31.17262 | -95.52078 | 31030 ft | 427 kts | 320° |
| 2026-04-30 19:48 | 31.19735 | -95.53981 | 30639 ft | 425 kts | 320° |
| 2026-04-30 19:49 | 31.22200 | -95.55877 | 30264 ft | 423 kts | 320° |
| 2026-04-30 19:49 | 31.27060 | -95.59614 | 29489 ft | 419 kts | 320° |
| 2026-04-30 19:49 | 31.29483 | -95.61479 | 29124 ft | 416 kts | 320° |
| 2026-04-30 19:50 | 31.31890 | -95.63336 | 28894 ft | 411 kts | 320° |
| 2026-04-30 19:50 | 31.34269 | -95.65166 | 28589 ft | 409 kts | 320° |
| 2026-04-30 19:50 | 31.36644 | -95.66979 | 28269 ft | 407 kts | 320° |
| 2026-04-30 19:50 | 31.39019 | -95.68778 | 27958 ft | 405 kts | 320° |
| 2026-04-30 19:51 | 31.41392 | -95.70546 | 27742 ft | 402 kts | 320° |
| 2026-04-30 19:51 | 31.43757 | -95.72284 | 27485 ft | 400 kts | 320° |
| 2026-04-30 19:51 | 31.46108 | -95.74008 | 27196 ft | 398 kts | 320° |
| 2026-04-30 19:51 | 31.48456 | -95.75730 | 26904 ft | 397 kts | 320° |
| 2026-04-30 19:52 | 31.50789 | -95.77445 | 26597 ft | 396 kts | 320° |
| 2026-04-30 19:52 | 31.53122 | -95.79159 | 26266 ft | 394 kts | 320° |
| 2026-04-30 19:52 | 31.55439 | -95.80863 | 25817 ft | 392 kts | 320° |
| 2026-04-30 19:52 | 31.57746 | -95.82556 | 25396 ft | 390 kts | 320° |
| 2026-04-30 19:53 | 31.60039 | -95.84248 | 24990 ft | 389 kts | 321° |
| 2026-04-30 19:53 | 31.62327 | -95.85930 | 24637 ft | 387 kts | 321° |
| 2026-04-30 19:53 | 31.64601 | -95.87608 | 24305 ft | 385 kts | 321° |
| 2026-04-30 19:53 | 31.66871 | -95.89284 | 24001 ft | 384 kts | 320° |
| 2026-04-30 19:54 | 31.69137 | -95.90945 | 23676 ft | 383 kts | 321° |
| 2026-04-30 19:54 | 31.71402 | -95.92530 | 23329 ft | 384 kts | 322° |
| 2026-04-30 19:54 | 31.73721 | -95.94072 | 22986 ft | 382 kts | 323° |
| 2026-04-30 19:54 | 31.76029 | -95.95612 | 22652 ft | 380 kts | 323° |
| 2026-04-30 19:55 | 31.78322 | -95.97151 | 22408 ft | 378 kts | 322° |
| 2026-04-30 19:55 | 31.80603 | -95.98687 | 22084 ft | 377 kts | 323° |
| 2026-04-30 19:55 | 31.82876 | -96.00208 | 21722 ft | 374 kts | 323° |
| 2026-04-30 19:55 | 31.85130 | -96.01732 | 21249 ft | 372 kts | 322° |
| 2026-04-30 19:56 | 31.87352 | -96.03271 | 20761 ft | 369 kts | 322° |
| 2026-04-30 19:56 | 31.89538 | -96.04834 | 20330 ft | 366 kts | 321° |
| 2026-04-30 19:56 | 31.91704 | -96.06404 | 19926 ft | 365 kts | 321° |
| 2026-04-30 19:56 | 31.93866 | -96.07958 | 19598 ft | 362 kts | 320° |
| 2026-04-30 19:57 | 31.96002 | -96.09498 | 19255 ft | 359 kts | 320° |
| 2026-04-30 19:57 | 31.98127 | -96.11032 | 18893 ft | 357 kts | 320° |
| 2026-04-30 19:57 | 32.00237 | -96.12559 | 18550 ft | 355 kts | 320° |
| 2026-04-30 19:57 | 32.02338 | -96.14078 | 18218 ft | 353 kts | 319° |
| 2026-04-30 19:58 | 32.04429 | -96.15590 | 17783 ft | 352 kts | 320° |
| 2026-04-30 19:58 | 32.06512 | -96.17102 | 17239 ft | 351 kts | 320° |
| 2026-04-30 19:58 | 32.08586 | -96.18606 | 16730 ft | 350 kts | 320° |
| 2026-04-30 19:58 | 32.10660 | -96.20112 | 16241 ft | 349 kts | 320° |